createdAt,value
2019-01-31T00:00:39.164Z,83.49
2019-01-31T00:01:39.147Z,83.35
2019-01-31T00:02:38.930Z,83.3
2019-01-31T00:03:39.673Z,83.4
2019-01-31T00:04:39.296Z,83.45
2019-01-31T00:05:38.943Z,83.39
2019-01-31T00:06:39.293Z,83.35
2019-01-31T00:07:38.936Z,83.37
2019-01-31T00:08:45.413Z,83.33
2019-01-31T00:09:39.005Z,83.41
2019-01-31T00:10:38.943Z,83.65
2019-01-31T00:11:38.846Z,83.79
2019-01-31T00:12:38.871Z,83.8
2019-01-31T00:13:38.849Z,83.85
2019-01-31T00:14:38.803Z,83.67
2019-01-31T00:15:38.782Z,83.71
2019-01-31T00:16:39.156Z,83.86
2019-01-31T00:17:39.368Z,83.67
2019-01-31T00:18:38.900Z,83.63
2019-01-31T00:19:39.072Z,83.66
2019-01-31T00:20:38.799Z,83.65
2019-01-31T00:21:38.941Z,83.91
2019-01-31T00:22:39.096Z,83.94
2019-01-31T00:23:38.796Z,83.76
2019-01-31T00:24:38.789Z,83.75
2019-01-31T00:25:38.808Z,83.77
2019-01-31T00:26:38.758Z,83.58
2019-01-31T00:27:38.925Z,83.58
2019-01-31T00:28:38.797Z,83.74
2019-01-31T00:29:38.779Z,83.63
2019-01-31T00:30:39.145Z,83.5
2019-01-31T00:31:38.809Z,83.61
2019-01-31T00:32:38.828Z,83.57
2019-01-31T00:33:38.859Z,83.46
2019-01-31T00:34:39.097Z,83.31
2019-01-31T00:35:38.763Z,83.26
2019-01-31T00:36:38.862Z,82.96
2019-01-31T00:37:39.098Z,82.97
2019-01-31T00:38:39.636Z,83.18
2019-01-31T00:39:39.111Z,83.16
2019-01-31T00:40:38.772Z,83.1
2019-01-31T00:41:39.015Z,83.08
2019-01-31T00:42:39.028Z,83.09
2019-01-31T00:43:38.866Z,82.94
2019-01-31T00:44:39.036Z,82.88
2019-01-31T00:45:39.165Z,82.78
2019-01-31T00:46:38.857Z,82.79
2019-01-31T00:47:38.879Z,82.81
2019-01-31T00:48:38.741Z,82.76
2019-01-31T00:49:39.179Z,82.7
2019-01-31T00:50:38.899Z,82.57
2019-01-31T00:51:38.727Z,82.45
2019-01-31T00:52:40.566Z,82.35
2019-01-31T00:53:39.100Z,82.31
2019-01-31T00:54:38.725Z,82.32
2019-01-31T00:55:39.024Z,82.33
2019-01-31T00:56:39.025Z,82.44
2019-01-31T00:57:39.030Z,82.21
2019-01-31T00:58:38.752Z,82.18
2019-01-31T00:59:38.731Z,82.15
2019-01-31T01:00:38.728Z,82.05
2019-01-31T01:01:38.966Z,82
2019-01-31T01:02:39.064Z,82.4
2019-01-31T01:03:39.120Z,82.4
2019-01-31T01:04:39.077Z,82.7
2019-01-31T01:05:38.760Z,82.57
2019-01-31T01:06:38.812Z,82.64
2019-01-31T01:07:39.000Z,82.57
2019-01-31T01:08:39.108Z,82.65
2019-01-31T01:09:38.788Z,82.89
2019-01-31T01:10:38.907Z,83.09
2019-01-31T01:11:39.038Z,82.93
2019-01-31T01:12:38.965Z,82.81
2019-01-31T01:13:38.951Z,82.63
2019-01-31T01:14:38.733Z,82.42
2019-01-31T01:15:38.746Z,81.99
2019-01-31T01:16:38.730Z,82.06
2019-01-31T01:17:38.826Z,82.03
2019-01-31T01:18:38.683Z,82.15
2019-01-31T01:19:38.758Z,82.24
2019-01-31T01:20:38.792Z,82.3
2019-01-31T01:21:39.094Z,81.89
2019-01-31T01:22:38.760Z,82
2019-01-31T01:23:38.711Z,81.87
2019-01-31T01:24:38.707Z,81.77
2019-01-31T01:25:39.018Z,82.09
2019-01-31T01:26:38.699Z,81.88
2019-01-31T01:27:38.659Z,81.91
2019-01-31T01:28:38.935Z,81.84
2019-01-31T01:29:38.737Z,81.76
2019-01-31T01:30:38.674Z,81.94
2019-01-31T01:31:39.056Z,81.91
2019-01-31T01:32:38.907Z,82
2019-01-31T01:33:39.069Z,81.77
2019-01-31T01:34:38.716Z,81.35
2019-01-31T01:35:38.982Z,81.57
2019-01-31T01:36:40.549Z,81.71
2019-01-31T01:37:38.879Z,81.78
2019-01-31T01:38:40.512Z,81.92
2019-01-31T01:39:38.790Z,81.75
2019-01-31T01:40:38.747Z,81.81
2019-01-31T01:41:40.499Z,81.81
2019-01-31T01:42:39.236Z,81.68
2019-01-31T01:43:39.350Z,81.7
2019-01-31T01:44:38.718Z,81.85
2019-01-31T01:45:39.069Z,81.59
2019-01-31T01:46:38.754Z,81.43
2019-01-31T01:47:38.650Z,81.38
2019-01-31T01:48:38.966Z,81.44
2019-01-31T01:49:38.744Z,81.33
2019-01-31T01:50:38.766Z,81.5
2019-01-31T01:51:39.054Z,81.59
2019-01-31T01:52:38.733Z,81.62
2019-01-31T01:53:39.020Z,81.81
2019-01-31T01:54:38.691Z,81.83
2019-01-31T01:55:38.736Z,81.56
2019-01-31T01:56:38.649Z,81.7
2019-01-31T01:57:38.805Z,81.68
2019-01-31T01:58:38.672Z,81.63
2019-01-31T01:59:38.756Z,81.43
2019-01-31T02:00:38.638Z,81.46
2019-01-31T02:01:38.628Z,81.59
2019-01-31T02:02:38.655Z,81.49
2019-01-31T02:03:38.650Z,81.5
2019-01-31T02:04:38.686Z,81.55
2019-01-31T02:05:38.708Z,81.29
2019-01-31T02:06:38.633Z,81.48
2019-01-31T02:07:38.922Z,81.22
2019-01-31T02:08:38.799Z,81.29
2019-01-31T02:09:39.013Z,81.37
2019-01-31T02:10:38.822Z,81.48
2019-01-31T02:11:38.640Z,81.31
2019-01-31T02:12:38.996Z,81.47
2019-01-31T02:13:38.934Z,81.3
2019-01-31T02:15:38.633Z,81.44
2019-01-31T02:16:38.749Z,81.46
2019-01-31T02:17:38.990Z,81.39
2019-01-31T02:18:38.690Z,81.6
2019-01-31T02:19:38.754Z,81.63
2019-01-31T02:20:38.766Z,81.65
2019-01-31T02:21:38.634Z,81.77
2019-01-31T02:22:39.305Z,81.67
2019-01-31T02:23:39.004Z,81.92
2019-01-31T02:24:38.610Z,81.83
2019-01-31T02:25:38.798Z,81.81
2019-01-31T02:26:38.953Z,81.76
2019-01-31T02:27:38.582Z,81.75
2019-01-31T02:28:38.736Z,81.6
2019-01-31T02:29:38.897Z,81.92
2019-01-31T02:30:39.470Z,82
2019-01-31T02:31:38.693Z,82.04
2019-01-31T02:32:38.718Z,81.81
2019-01-31T02:33:38.985Z,81.9
2019-01-31T02:34:39.515Z,81.87
2019-01-31T02:35:38.680Z,81.93
2019-01-31T02:36:39.034Z,81.78
2019-01-31T02:37:40.396Z,81.85
2019-01-31T02:38:38.917Z,81.75
2019-01-31T02:39:42.903Z,81.91
2019-01-31T02:40:38.766Z,81.7
2019-01-31T02:41:39.372Z,81.8
2019-01-31T02:42:38.678Z,81.84
2019-01-31T02:43:38.572Z,81.88
2019-01-31T02:44:38.858Z,82.1
2019-01-31T02:45:38.752Z,82.09
2019-01-31T02:46:38.639Z,82.05
2019-01-31T02:47:38.740Z,82.14
2019-01-31T02:48:39.457Z,82.24
2019-01-31T02:49:38.584Z,82.28
2019-01-31T02:50:38.636Z,82.03
2019-01-31T02:51:38.596Z,82.21
2019-01-31T02:52:38.618Z,82.1
2019-01-31T02:53:39.604Z,81.93
2019-01-31T02:54:38.706Z,81.94
2019-01-31T02:55:38.696Z,82.18
2019-01-31T02:56:38.748Z,82.21
2019-01-31T02:57:39.267Z,82.17
2019-01-31T02:58:38.515Z,82.4
2019-01-31T02:59:38.852Z,82.28
2019-01-31T03:00:38.662Z,82.42
2019-01-31T03:01:38.547Z,82.36
2019-01-31T03:02:38.555Z,82.46
2019-01-31T03:03:38.617Z,82.47
2019-01-31T03:04:38.535Z,82.47
2019-01-31T03:05:38.548Z,82.56
2019-01-31T03:06:38.577Z,82.51
2019-01-31T03:07:39.398Z,82.58
2019-01-31T03:08:38.487Z,82.71
2019-01-31T03:09:38.612Z,82.34
2019-01-31T03:10:39.389Z,82.47
2019-01-31T03:11:38.732Z,82.27
2019-01-31T03:12:38.875Z,82.44
2019-01-31T03:13:38.561Z,82.33
2019-01-31T03:14:40.375Z,82.36
2019-01-31T03:15:38.575Z,82.33
2019-01-31T03:16:40.374Z,82.4
2019-01-31T03:17:38.778Z,82.29
2019-01-31T03:18:38.528Z,82.43
2019-01-31T03:19:38.687Z,82.46
2019-01-31T03:20:38.505Z,82.57
2019-01-31T03:21:39.228Z,82.32
2019-01-31T03:22:38.985Z,82.35
2019-01-31T03:23:38.591Z,81.9
2019-01-31T03:24:39.067Z,81.77
2019-01-31T03:25:38.787Z,81.8
2019-01-31T03:26:38.756Z,81.67
2019-01-31T03:27:38.957Z,81.63
2019-01-31T03:28:38.643Z,81.67
2019-01-31T03:29:38.811Z,81.75
2019-01-31T03:30:38.499Z,81.83
2019-01-31T03:31:38.512Z,81.73
2019-01-31T03:32:38.792Z,81.6
2019-01-31T03:33:38.638Z,81.55
2019-01-31T03:34:38.808Z,81.31
2019-01-31T03:35:39.197Z,81.13
2019-01-31T03:36:38.820Z,81.22
2019-01-31T03:37:38.541Z,81.06
2019-01-31T03:38:38.625Z,80.89
2019-01-31T03:39:38.570Z,80.81
2019-01-31T03:40:38.508Z,81.02
2019-01-31T03:41:38.516Z,81.08
2019-01-31T03:42:38.543Z,81.11
2019-01-31T03:43:38.508Z,80.71
2019-01-31T03:44:38.562Z,80.86
2019-01-31T03:45:38.521Z,80.65
2019-01-31T03:46:38.508Z,80.64
2019-01-31T03:47:38.488Z,80.56
2019-01-31T03:48:38.632Z,80.69
2019-01-31T03:49:38.502Z,80.69
2019-01-31T03:50:38.608Z,80.59
2019-01-31T03:51:38.548Z,80.73
2019-01-31T03:52:38.537Z,80.74
2019-01-31T03:53:38.480Z,80.64
2019-01-31T03:54:38.541Z,80.75
2019-01-31T03:55:38.467Z,80.65
2019-01-31T03:56:38.446Z,80.42
2019-01-31T03:57:38.514Z,80.24
2019-01-31T03:58:38.970Z,80.31
2019-01-31T03:59:38.995Z,80.18
2019-01-31T04:00:40.139Z,80.19
2019-01-31T04:01:38.449Z,80.19
2019-01-31T04:02:38.457Z,80.41
2019-01-31T04:03:38.496Z,80.25
2019-01-31T04:04:39.726Z,80.52
2019-01-31T04:05:38.821Z,80.65
2019-01-31T04:06:38.656Z,80.5
2019-01-31T04:07:38.451Z,80.71
2019-01-31T04:08:38.556Z,80.75
2019-01-31T04:09:39.359Z,80.77
2019-01-31T04:10:38.571Z,80.81
2019-01-31T04:11:38.582Z,80.99
2019-01-31T04:12:38.473Z,81.14
2019-01-31T04:13:38.554Z,81.27
2019-01-31T04:14:38.621Z,81.23
2019-01-31T04:15:38.685Z,81.31
2019-01-31T04:16:39.419Z,81.4
2019-01-31T04:17:38.755Z,81.24
2019-01-31T04:18:38.613Z,81.25
2019-01-31T04:19:39.123Z,81.15
2019-01-31T04:20:38.919Z,81.28
2019-01-31T04:21:38.754Z,81.37
2019-01-31T04:22:38.427Z,81.14
2019-01-31T04:23:38.599Z,80.95
2019-01-31T04:24:38.462Z,80.75
2019-01-31T04:25:38.621Z,80.65
2019-01-31T04:26:38.407Z,80.86
2019-01-31T04:27:38.691Z,80.92
2019-01-31T04:28:38.724Z,80.99
2019-01-31T04:29:38.508Z,80.88
2019-01-31T04:30:38.787Z,80.9
2019-01-31T04:31:38.530Z,81.31
2019-01-31T04:32:38.545Z,81.16
2019-01-31T04:33:38.626Z,80.93
2019-01-31T04:34:38.587Z,81.1
2019-01-31T04:35:38.640Z,81.19
2019-01-31T04:36:38.705Z,81.49
2019-01-31T04:37:38.485Z,81.2
2019-01-31T04:38:38.615Z,81.06
2019-01-31T04:39:38.383Z,81.43
2019-01-31T04:40:40.233Z,81.25
2019-01-31T04:41:39.094Z,81.48
2019-01-31T04:42:38.594Z,81.33
2019-01-31T04:43:38.592Z,81.46
2019-01-31T04:44:38.479Z,81.64
2019-01-31T04:45:38.496Z,81.46
2019-01-31T04:46:38.683Z,81.41
2019-01-31T04:47:38.483Z,81.59
2019-01-31T04:48:38.693Z,81.74
2019-01-31T04:49:38.448Z,81.59
2019-01-31T04:50:38.438Z,81.53
2019-01-31T04:51:38.852Z,81.53
2019-01-31T04:52:38.434Z,81.79
2019-01-31T04:53:39.259Z,81.28
2019-01-31T04:54:38.641Z,81.35
2019-01-31T04:55:38.432Z,81.45
2019-01-31T04:56:38.399Z,81.13
2019-01-31T04:57:38.550Z,81.22
2019-01-31T04:58:38.545Z,81.02
2019-01-31T04:59:38.432Z,81.01
2019-01-31T05:00:38.607Z,80.77
2019-01-31T05:01:38.509Z,80.8
2019-01-31T05:02:40.149Z,80.46
2019-01-31T05:03:38.539Z,80.36
2019-01-31T05:04:38.396Z,80.17
2019-01-31T05:05:38.500Z,80.15
2019-01-31T05:06:38.724Z,80.2
2019-01-31T05:07:38.601Z,79.99
2019-01-31T05:08:38.368Z,79.91
2019-01-31T05:09:38.449Z,79.95
2019-01-31T05:10:42.952Z,79.92
2019-01-31T05:11:38.549Z,79.85
2019-01-31T05:12:38.351Z,79.84
2019-01-31T05:13:38.414Z,79.52
2019-01-31T05:14:38.500Z,79.79
2019-01-31T05:15:38.377Z,78.95
2019-01-31T05:16:39.506Z,78.96
2019-01-31T05:17:38.469Z,78.86
2019-01-31T05:18:38.443Z,78.91
2019-01-31T05:19:38.526Z,78.79
2019-01-31T05:20:38.469Z,78.37
2019-01-31T05:21:38.394Z,78.23
2019-01-31T05:22:38.399Z,78.53
2019-01-31T05:23:38.469Z,78.55
2019-01-31T05:24:38.362Z,78.54
2019-01-31T05:25:38.345Z,78.62
2019-01-31T05:26:38.479Z,78.21
2019-01-31T05:27:38.453Z,78.25
2019-01-31T05:28:38.396Z,77.47
2019-01-31T05:29:38.576Z,77.75
2019-01-31T05:30:38.379Z,77.92
2019-01-31T05:31:38.344Z,77.89
2019-01-31T05:32:38.417Z,78.12
2019-01-31T05:33:38.334Z,78.17
2019-01-31T05:34:38.434Z,77.54
2019-01-31T05:35:38.389Z,77.46
2019-01-31T05:36:38.569Z,77.87
2019-01-31T05:37:38.639Z,77.64
2019-01-31T05:38:38.409Z,77.68
2019-01-31T05:39:38.410Z,77.78
2019-01-31T05:40:38.353Z,77.94
2019-01-31T05:41:40.165Z,77.99
2019-01-31T05:42:38.571Z,78.06
2019-01-31T05:43:38.719Z,78.08
2019-01-31T05:44:38.299Z,78.35
2019-01-31T05:45:38.281Z,78.73
2019-01-31T05:46:38.367Z,78.64
2019-01-31T05:47:39.009Z,78.69
2019-01-31T05:48:38.521Z,77.9
2019-01-31T05:49:38.328Z,77.83
2019-01-31T05:50:38.345Z,78.04
2019-01-31T05:51:39.395Z,78.3
2019-01-31T05:52:38.271Z,78.13
2019-01-31T05:53:38.343Z,77.88
2019-01-31T05:54:38.555Z,77.96
2019-01-31T05:55:38.566Z,78.07
2019-01-31T05:56:38.303Z,78.12
2019-01-31T05:57:40.119Z,78.14
2019-01-31T05:58:38.318Z,78.02
2019-01-31T05:59:38.216Z,78.12
2019-01-31T06:00:38.333Z,78.37
2019-01-31T06:01:38.384Z,78.41
2019-01-31T06:02:38.350Z,78.33
2019-01-31T06:03:38.296Z,78.56
2019-01-31T06:04:38.836Z,78.72
2019-01-31T06:05:39.148Z,78.72
2019-01-31T06:06:38.347Z,78.86
2019-01-31T06:07:39.758Z,78.89
2019-01-31T06:08:38.363Z,78.99
2019-01-31T06:09:38.239Z,78.97
2019-01-31T06:10:38.314Z,78.97
2019-01-31T06:11:39.116Z,78.99
2019-01-31T06:12:38.385Z,78.94
2019-01-31T06:13:38.398Z,79.11
2019-01-31T06:14:38.426Z,79.13
2019-01-31T06:15:38.348Z,79.17
2019-01-31T06:16:38.330Z,79.07
2019-01-31T06:17:38.259Z,78.99
2019-01-31T06:18:38.403Z,79.17
2019-01-31T06:19:38.347Z,79.26
2019-01-31T06:20:38.642Z,79.26
2019-01-31T06:21:38.522Z,79.27
2019-01-31T06:22:38.351Z,79.46
2019-01-31T06:23:38.539Z,79.6
2019-01-31T06:24:38.323Z,79.67
2019-01-31T06:25:38.273Z,79.65
2019-01-31T06:26:38.306Z,79.73
2019-01-31T06:27:38.225Z,79.97
2019-01-31T06:28:38.236Z,80.27
2019-01-31T06:29:38.777Z,80.52
2019-01-31T06:30:38.900Z,80.82
2019-01-31T06:31:38.507Z,81.14
2019-01-31T06:32:38.691Z,81.72
2019-01-31T06:33:38.360Z,81.99
2019-01-31T06:34:38.511Z,82.66
2019-01-31T06:35:38.867Z,83.25
2019-01-31T06:36:38.390Z,83.71
2019-01-31T06:37:38.251Z,84.17
2019-01-31T06:38:39.469Z,84.22
2019-01-31T06:39:38.279Z,84.74
2019-01-31T06:40:38.551Z,84.77
2019-01-31T06:41:39.775Z,85.09
2019-01-31T06:42:38.214Z,85.2
2019-01-31T06:43:38.475Z,85.17
2019-01-31T06:44:38.253Z,85.32
2019-01-31T06:45:38.202Z,85.52
2019-01-31T06:46:38.234Z,85.93
2019-01-31T06:47:38.253Z,86.05
2019-01-31T06:48:38.214Z,85.72
2019-01-31T06:49:38.327Z,86.03
2019-01-31T06:50:38.523Z,86.07
2019-01-31T06:51:38.190Z,86.14
2019-01-31T06:52:38.209Z,86.56
2019-01-31T06:53:38.361Z,86.7
2019-01-31T06:54:39.063Z,86.33
2019-01-31T06:55:38.703Z,86.95
2019-01-31T06:56:38.465Z,87.07
2019-01-31T06:57:38.311Z,86.86
2019-01-31T06:58:40.816Z,86.94
2019-01-31T06:59:38.903Z,87.09
2019-01-31T07:00:38.223Z,87.41
2019-01-31T07:01:38.661Z,87.3
2019-01-31T07:02:39.141Z,88.03
2019-01-31T07:03:39.077Z,87.35
2019-01-31T07:04:38.501Z,88.77
2019-01-31T07:05:38.536Z,88.57
2019-01-31T07:06:38.243Z,88.81
2019-01-31T07:07:38.250Z,88.26
2019-01-31T07:08:38.209Z,89.05
2019-01-31T07:09:38.225Z,89.34
2019-01-31T07:10:38.153Z,89.67
2019-01-31T07:11:38.139Z,89.25
2019-01-31T07:12:38.244Z,89.89
2019-01-31T07:13:38.167Z,90.27
2019-01-31T07:14:38.226Z,90.21
2019-01-31T07:15:38.263Z,90.27
2019-01-31T07:16:38.144Z,89.94
2019-01-31T07:17:38.467Z,90.8
2019-01-31T07:18:38.179Z,89.86
2019-01-31T07:19:38.135Z,90.93
2019-01-31T07:20:38.231Z,89.81
2019-01-31T07:21:38.261Z,90.31
2019-01-31T07:22:38.136Z,90.44
2019-01-31T07:23:38.211Z,90.25
2019-01-31T07:24:38.205Z,91.02
2019-01-31T07:25:38.231Z,90.68
2019-01-31T07:26:38.186Z,91.33
2019-01-31T07:27:38.289Z,91.57
2019-01-31T07:28:38.219Z,90.63
2019-01-31T07:29:38.387Z,92.08
2019-01-31T07:30:38.236Z,91.54
2019-01-31T07:31:38.403Z,91.42
2019-01-31T07:32:38.631Z,90.92
2019-01-31T07:33:38.546Z,91.25
2019-01-31T07:34:38.531Z,91.79
2019-01-31T07:35:39.939Z,91.32
2019-01-31T07:36:38.443Z,92.28
2019-01-31T07:37:38.181Z,91.81
2019-01-31T07:38:38.210Z,91.8
2019-01-31T07:39:38.131Z,91.88
2019-01-31T07:40:38.205Z,91.18
2019-01-31T07:41:41.187Z,92.03
2019-01-31T07:42:38.279Z,92.19
2019-01-31T07:43:38.922Z,92.01
2019-01-31T07:44:38.141Z,91.8
2019-01-31T07:45:38.518Z,92.07
2019-01-31T07:46:38.186Z,92.59
2019-01-31T07:47:38.164Z,92.3
2019-01-31T07:48:38.780Z,92.66
2019-01-31T07:49:38.283Z,91.92
2019-01-31T07:50:38.649Z,92.5
2019-01-31T07:51:38.227Z,93
2019-01-31T07:52:38.639Z,92.53
2019-01-31T07:53:38.747Z,92.26
2019-01-31T07:54:38.328Z,93.19
2019-01-31T07:55:38.143Z,93.28
2019-01-31T07:56:38.367Z,93.05
2019-01-31T07:57:38.341Z,93.08
2019-01-31T07:58:38.334Z,92.54
2019-01-31T07:59:38.173Z,92.39
2019-01-31T08:00:38.233Z,92.71
2019-01-31T08:01:40.773Z,92.74
2019-01-31T08:02:38.421Z,92.62
2019-01-31T08:03:40.676Z,92.79
2019-01-31T08:04:38.445Z,92.89
2019-01-31T08:05:38.062Z,93.37
2019-01-31T08:06:38.167Z,93.29
2019-01-31T08:07:38.722Z,93.52
2019-01-31T08:08:38.256Z,93.22
2019-01-31T08:09:38.467Z,93.47
2019-01-31T08:10:39.208Z,93.04
2019-01-31T08:11:38.479Z,93.01
2019-01-31T08:12:38.603Z,92.92
2019-01-31T08:13:38.719Z,93.2
2019-01-31T08:14:38.513Z,93.12
2019-01-31T08:15:39.923Z,92.89
2019-01-31T08:16:38.176Z,92.69
2019-01-31T08:17:38.246Z,92.65
2019-01-31T08:18:38.431Z,93.2
2019-01-31T08:19:38.528Z,93.17
2019-01-31T08:20:38.185Z,93.7
2019-01-31T08:21:40.986Z,93.21
2019-01-31T08:22:38.083Z,93.86
2019-01-31T08:23:38.748Z,93.53
2019-01-31T08:24:43.085Z,93.34
2019-01-31T08:25:38.293Z,93.43
2019-01-31T08:26:38.924Z,93.17
2019-01-31T08:27:38.037Z,93.84
2019-01-31T08:28:38.057Z,93.61
2019-01-31T08:29:38.148Z,93.71
2019-01-31T08:30:38.044Z,93.41
2019-01-31T08:31:39.021Z,93.21
2019-01-31T08:32:38.458Z,93.45
2019-01-31T08:33:38.339Z,93.69
2019-01-31T08:34:38.097Z,93.5
2019-01-31T08:35:38.214Z,93.32
2019-01-31T08:36:38.484Z,93.17
2019-01-31T08:37:38.024Z,93.44
2019-01-31T08:38:38.278Z,93.22
2019-01-31T08:39:38.118Z,93.16
2019-01-31T08:40:39.848Z,93.49
2019-01-31T08:41:38.502Z,93.16
2019-01-31T08:42:38.114Z,92.75
2019-01-31T08:43:38.126Z,93.03
2019-01-31T08:44:38.063Z,92.97
2019-01-31T08:45:38.058Z,93.71
2019-01-31T08:46:38.026Z,93.52
2019-01-31T08:47:38.355Z,93
2019-01-31T08:48:38.082Z,93.28
2019-01-31T08:49:38.010Z,93.1
2019-01-31T08:50:38.329Z,93.19
2019-01-31T08:51:38.973Z,93.48
2019-01-31T08:52:38.232Z,93.6
2019-01-31T08:53:39.432Z,93.03
2019-01-31T08:54:38.152Z,93.46
2019-01-31T08:55:38.514Z,93.65
2019-01-31T08:56:38.305Z,93.62
2019-01-31T08:57:37.995Z,93.55
2019-01-31T08:58:38.029Z,93.53
2019-01-31T08:59:38.440Z,93.28
2019-01-31T09:00:38.038Z,93.58
2019-01-31T09:01:38.060Z,93.33
2019-01-31T09:02:38.211Z,93.62
2019-01-31T09:03:38.328Z,93.27
2019-01-31T09:04:38.057Z,93.48
2019-01-31T09:05:38.058Z,93.29
2019-01-31T09:06:38.056Z,93.12
2019-01-31T09:07:38.012Z,93.27
2019-01-31T09:08:38.091Z,93.54
2019-01-31T09:09:38.355Z,93.44
2019-01-31T09:10:39.860Z,93.48
2019-01-31T09:11:38.771Z,93.28
2019-01-31T09:12:37.997Z,93.35
2019-01-31T09:13:38.409Z,93.35
2019-01-31T09:14:38.064Z,93.41
2019-01-31T09:15:38.027Z,93.29
2019-01-31T09:16:38.187Z,93.09
2019-01-31T09:17:38.122Z,93.14
2019-01-31T09:18:38.342Z,92.82
2019-01-31T09:19:38.258Z,93.05
2019-01-31T09:20:37.993Z,92.78
2019-01-31T09:21:38.625Z,93
2019-01-31T09:22:37.957Z,92.81
2019-01-31T09:23:38.470Z,92.52
2019-01-31T09:24:38.174Z,92.66
2019-01-31T09:25:38.874Z,92.83
2019-01-31T09:26:38.311Z,92.81
2019-01-31T09:27:38.470Z,92.8
2019-01-31T09:28:37.945Z,92.63
2019-01-31T09:29:38.583Z,92.21
2019-01-31T09:30:38.025Z,92.41
2019-01-31T09:31:38.194Z,92.38
2019-01-31T09:32:37.989Z,92.63
2019-01-31T09:33:38.236Z,92.4
2019-01-31T09:34:38.315Z,92.81
2019-01-31T09:35:38.325Z,92.4
2019-01-31T09:36:38.025Z,92.34
2019-01-31T09:37:38.443Z,92.17
2019-01-31T09:38:38.568Z,92.35
2019-01-31T09:39:38.150Z,92.14
2019-01-31T09:40:38.084Z,91.97
2019-01-31T09:41:38.183Z,92.1
2019-01-31T09:42:38.193Z,92.23
2019-01-31T09:43:38.233Z,92.11
2019-01-31T09:44:38.002Z,92.17
2019-01-31T09:45:38.904Z,92.16
2019-01-31T09:46:38.163Z,92.52
2019-01-31T09:47:38.770Z,92.52
2019-01-31T09:48:37.824Z,92.27
2019-01-31T09:49:38.051Z,91.96
2019-01-31T09:50:38.048Z,92.03
2019-01-31T09:51:38.264Z,92.03
2019-01-31T09:52:38.213Z,91.86
2019-01-31T09:53:37.901Z,91.79
2019-01-31T09:54:38.610Z,91.72
2019-01-31T09:55:38.075Z,91.68
2019-01-31T09:56:38.354Z,91.76
2019-01-31T09:57:37.943Z,91.93
2019-01-31T09:58:38.212Z,91.53
2019-01-31T09:59:37.958Z,91.67
2019-01-31T10:00:38.232Z,91.68
2019-01-31T10:01:37.976Z,91.57
2019-01-31T10:02:37.898Z,91.52
2019-01-31T10:03:38.122Z,91.58
2019-01-31T10:04:38.080Z,91.28
2019-01-31T10:05:38.119Z,91.3
2019-01-31T10:06:38.059Z,91.23
2019-01-31T10:07:38.243Z,91.18
2019-01-31T10:08:38.308Z,91.24
2019-01-31T10:09:38.602Z,90.99
2019-01-31T10:10:40.540Z,91.02
2019-01-31T10:11:38.443Z,91.07
2019-01-31T10:12:39.235Z,91.05
2019-01-31T10:13:38.158Z,90.97
2019-01-31T10:14:39.249Z,90.81
2019-01-31T10:15:38.160Z,90.82
2019-01-31T10:16:39.789Z,90.68
2019-01-31T10:17:38.122Z,90.62
2019-01-31T10:18:38.124Z,90.78
2019-01-31T10:19:37.944Z,90.84
2019-01-31T10:20:38.212Z,90.58
2019-01-31T10:21:38.283Z,90.66
2019-01-31T10:22:38.753Z,90.68
2019-01-31T10:23:39.244Z,90.57
2019-01-31T10:24:37.912Z,90.86
2019-01-31T10:25:37.695Z,90.64
2019-01-31T10:26:37.945Z,90.45
2019-01-31T10:27:37.864Z,90.34
2019-01-31T10:28:52.616Z,90.2
2019-01-31T10:30:40.978Z,90.01
2019-01-31T10:31:40.679Z,89.87
2019-01-31T10:32:38.249Z,89.92
2019-01-31T10:33:37.847Z,89.72
2019-01-31T10:34:38.117Z,89.77
2019-01-31T10:35:39.999Z,89.65
2019-01-31T10:36:38.727Z,89.09
2019-01-31T10:37:37.849Z,88.79
2019-01-31T10:38:38.195Z,88.07
2019-01-31T10:39:48.370Z,87.96
2019-01-31T10:40:38.700Z,87.99
2019-01-31T10:41:37.394Z,88.08
2019-01-31T10:42:48.895Z,87.91
2019-01-31T10:43:38.114Z,87.5
2019-01-31T10:44:38.398Z,87.25
2019-01-31T10:45:38.310Z,86.92
2019-01-31T10:46:40.699Z,87.17
2019-01-31T10:47:40.398Z,86.6
2019-01-31T10:48:38.248Z,86.4
2019-01-31T10:49:37.923Z,86.37
2019-01-31T10:50:58.724Z,85.72
2019-01-31T10:51:37.941Z,85.82
2019-01-31T10:52:38.026Z,85.94
2019-01-31T10:53:38.331Z,85.26
2019-01-31T10:54:38.653Z,84.16
2019-01-31T10:55:37.997Z,84.74
2019-01-31T10:56:37.962Z,84.6
2019-01-31T10:57:38.115Z,84.65
2019-01-31T10:58:38.301Z,84.33
2019-01-31T10:59:38.021Z,84.1
2019-01-31T11:00:38.076Z,83.5
2019-01-31T11:01:37.980Z,83.95
2019-01-31T11:02:38.012Z,84.43
2019-01-31T11:03:38.026Z,84.06
2019-01-31T11:04:37.852Z,84.42
2019-01-31T11:05:38.159Z,84.6
2019-01-31T11:06:38.146Z,85.13
2019-01-31T11:07:37.922Z,84.96
2019-01-31T11:08:37.987Z,84.63
2019-01-31T11:09:37.995Z,84.05
2019-01-31T11:10:37.978Z,84.52
2019-01-31T11:11:37.817Z,84.14
2019-01-31T11:12:37.856Z,84.36
2019-01-31T11:13:39.999Z,84.37
2019-01-31T11:14:37.797Z,83.81
2019-01-31T11:15:38.007Z,84.21
2019-01-31T11:16:38.123Z,84.18
2019-01-31T11:17:37.835Z,83.63
2019-01-31T11:18:37.826Z,83.18
2019-01-31T11:19:37.774Z,83.88
2019-01-31T11:20:37.890Z,83.52
2019-01-31T11:21:37.870Z,83.47
2019-01-31T11:22:37.767Z,83.91
2019-01-31T11:23:37.843Z,84.08
2019-01-31T11:24:37.763Z,84.21
2019-01-31T11:25:38.272Z,84.15
2019-01-31T11:26:38.061Z,84.42
2019-01-31T11:27:37.783Z,84.26
2019-01-31T11:28:37.781Z,84.29
2019-01-31T11:29:37.782Z,84.33
2019-01-31T11:30:37.948Z,84.41
2019-01-31T11:31:39.604Z,84.94
2019-01-31T11:32:38.580Z,85.05
2019-01-31T11:33:37.949Z,85.23
2019-01-31T11:34:38.062Z,85.4
2019-01-31T11:35:38.457Z,85.71
2019-01-31T11:36:38.670Z,85.62
2019-01-31T11:37:37.815Z,85.74
2019-01-31T11:38:38.010Z,85.59
2019-01-31T11:39:37.971Z,85.89
2019-01-31T11:40:39.042Z,85.73
2019-01-31T11:41:37.895Z,85.47
2019-01-31T11:42:37.985Z,85.52
2019-01-31T11:43:38.667Z,85.62
2019-01-31T11:44:38.157Z,85.51
2019-01-31T11:45:38.007Z,85.38
2019-01-31T11:46:37.762Z,85.28
2019-01-31T11:47:39.569Z,85.24
2019-01-31T11:48:38.044Z,85.51
2019-01-31T11:49:38.081Z,85.45
2019-01-31T11:50:37.772Z,85.66
2019-01-31T11:51:37.730Z,85.42
2019-01-31T11:52:38.062Z,85.66
2019-01-31T11:53:37.948Z,85.54
2019-01-31T11:54:37.728Z,85.23
2019-01-31T11:55:38.280Z,85.52
2019-01-31T11:56:37.764Z,84.82
2019-01-31T11:57:37.767Z,85.04
2019-01-31T11:58:39.341Z,85.08
2019-01-31T11:59:37.834Z,84.96
2019-01-31T12:00:39.141Z,84.98
2019-01-31T12:01:38.033Z,85.14
2019-01-31T12:02:38.023Z,85.19
2019-01-31T12:03:37.881Z,85.38
2019-01-31T12:04:37.745Z,85.48
2019-01-31T12:05:37.791Z,85.55
2019-01-31T12:06:37.820Z,85.74
2019-01-31T12:07:38.030Z,86.3
2019-01-31T12:08:37.755Z,86.02
2019-01-31T12:09:37.701Z,85.84
2019-01-31T12:10:37.754Z,85.35
2019-01-31T12:11:37.770Z,85.02
2019-01-31T12:12:37.512Z,85.01
2019-01-31T12:13:38.600Z,84.99
2019-01-31T12:14:38.149Z,85.26
2019-01-31T12:15:39.536Z,85.57
2019-01-31T12:16:39.552Z,86.56
2019-01-31T12:17:38.338Z,86.11
2019-01-31T12:18:37.918Z,86.02
2019-01-31T12:19:37.791Z,85.97
2019-01-31T12:20:38.047Z,85.98
2019-01-31T12:21:38.708Z,85.65
2019-01-31T12:22:37.816Z,85.84
2019-01-31T12:23:38.165Z,86.31
2019-01-31T12:24:37.899Z,86.24
2019-01-31T12:25:37.796Z,87.16
2019-01-31T12:26:37.736Z,86.85
2019-01-31T12:27:37.711Z,86.87
2019-01-31T12:28:38.309Z,86.48
2019-01-31T12:29:37.671Z,86.39
2019-01-31T12:30:37.943Z,86.48
2019-01-31T12:31:37.709Z,86.36
2019-01-31T12:32:38.024Z,86.51
2019-01-31T12:33:37.792Z,86.62
2019-01-31T12:34:38.352Z,86.54
2019-01-31T12:35:38.050Z,86.58
2019-01-31T12:36:37.748Z,86.52
2019-01-31T12:37:37.745Z,86.72
2019-01-31T12:38:37.705Z,86.59
2019-01-31T12:39:38.224Z,86.15
2019-01-31T12:40:38.120Z,86.2
2019-01-31T12:41:37.989Z,86.11
2019-01-31T12:42:37.767Z,86.73
2019-01-31T12:43:38.004Z,86.42
2019-01-31T12:44:37.698Z,85.63
2019-01-31T12:45:38.223Z,85.98
2019-01-31T12:46:37.639Z,85.33
2019-01-31T12:47:37.797Z,84.59
2019-01-31T12:48:37.774Z,84.61
2019-01-31T12:49:37.762Z,84.31
2019-01-31T12:50:37.654Z,84.55
2019-01-31T12:51:37.686Z,84.32
2019-01-31T12:52:37.660Z,84.31
2019-01-31T12:53:37.752Z,84.58
2019-01-31T12:54:37.657Z,85.2
2019-01-31T12:55:37.730Z,84.98
2019-01-31T12:56:37.699Z,84.57
2019-01-31T12:57:37.661Z,85